sensor_id;sensor_type;location;lat;lon;timestamp;temperature;humidity
53520;DHT22;39397;53.204;5.778;2023-05-03T00:01:42;7.60;99.90
53520;DHT22;39397;53.204;5.778;2023-05-03T00:04:11;7.60;99.90
53520;DHT22;39397;53.204;5.778;2023-05-03T00:06:39;7.60;99.90
53520;DHT22;39397;53.204;5.778;2023-05-03T00:09:05;7.60;99.90
53520;DHT22;39397;53.204;5.778;2023-05-03T00:11:32;7.60;99.90
53520;DHT22;39397;53.204;5.778;2023-05-03T00:13:58;8.10;99.90
53520;DHT22;39397;53.204;5.778;2023-05-03T00:16:28;7.90;99.90
53520;DHT22;39397;53.204;5.778;2023-05-03T00:18:54;7.70;99.90
53520;DHT22;39397;53.204;5.778;2023-05-03T00:21:21;7.90;99.90
53520;DHT22;39397;53.204;5.778;2023-05-03T00:23:52;7.90;99.90
53520;DHT22;39397;53.204;5.778;2023-05-03T00:26:21;8.40;99.90
53520;DHT22;39397;53.204;5.778;2023-05-03T00:28:53;8.10;99.90
53520;DHT22;39397;53.204;5.778;2023-05-03T00:31:22;8.50;99.90
53520;DHT22;39397;53.204;5.778;2023-05-03T00:33:48;7.70;99.90
53520;DHT22;39397;53.204;5.778;2023-05-03T00:36:23;7.90;99.90
53520;DHT22;39397;53.204;5.778;2023-05-03T00:38:49;7.70;99.90
53520;DHT22;39397;53.204;5.778;2023-05-03T00:41:15;8.40;99.90
53520;DHT22;39397;53.204;5.778;2023-05-03T00:43:42;8.00;99.90
53520;DHT22;39397;53.204;5.778;2023-05-03T00:46:14;8.00;99.90
53520;DHT22;39397;53.204;5.778;2023-05-03T00:48:42;8.10;99.90
53520;DHT22;39397;53.204;5.778;2023-05-03T00:51:15;8.20;99.90
53520;DHT22;39397;53.204;5.778;2023-05-03T00:53:46;6.20;99.90
53520;DHT22;39397;53.204;5.778;2023-05-03T00:56:18;8.00;99.90
53520;DHT22;39397;53.204;5.778;2023-05-03T00:58:52;8.00;99.90
53520;DHT22;39397;53.204;5.778;2023-05-03T01:01:21;8.00;99.90
53520;DHT22;39397;53.204;5.778;2023-05-03T01:03:52;8.10;99.90
53520;DHT22;39397;53.204;5.778;2023-05-03T01:06:27;7.90;99.90
53520;DHT22;39397;53.204;5.778;2023-05-03T01:09:42;7.90;99.90
53520;DHT22;39397;53.204;5.778;2023-05-03T01:16:05;7.90;99.90
53520;DHT22;39397;53.204;5.778;2023-05-03T01:18:39;7.90;99.90
53520;DHT22;39397;53.204;5.778;2023-05-03T01:21:16;7.80;99.90
53520;DHT22;39397;53.204;5.778;2023-05-03T01:23:58;7.90;99.90
53520;DHT22;39397;53.204;5.778;2023-05-03T01:26:28;7.80;99.90
53520;DHT22;39397;53.204;5.778;2023-05-03T01:29:04;7.70;99.90
53520;DHT22;39397;53.204;5.778;2023-05-03T01:31:54;7.60;99.90
53520;DHT22;39397;53.204;5.778;2023-05-03T01:37:20;7.50;99.90
53520;DHT22;39397;53.204;5.778;2023-05-03T01:39:58;7.40;99.90
53520;DHT22;39397;53.204;5.778;2023-05-03T01:42:34;7.30;99.90
53520;DHT22;39397;53.204;5.778;2023-05-03T01:45:07;7.10;99.90
53520;DHT22;39397;53.204;5.778;2023-05-03T01:47:35;7.20;99.90
53520;DHT22;39397;53.204;5.778;2023-05-03T01:50:08;6.90;99.90
53520;DHT22;39397;53.204;5.778;2023-05-03T01:52:35;7.00;99.90
53520;DHT22;39397;53.204;5.778;2023-05-03T01:55:02;6.60;99.90
53520;DHT22;39397;53.204;5.778;2023-05-03T01:57:28;6.90;99.90
53520;DHT22;39397;53.204;5.778;2023-05-03T01:59:53;6.90;99.90
53520;DHT22;39397;53.204;5.778;2023-05-03T02:02:19;7.00;99.90
53520;DHT22;39397;53.204;5.778;2023-05-03T02:04:45;5.80;99.90
53520;DHT22;39397;53.204;5.778;2023-05-03T02:07:11;7.50;99.90
53520;DHT22;39397;53.204;5.778;2023-05-03T02:09:37;7.10;99.90
53520;DHT22;39397;53.204;5.778;2023-05-03T02:12:03;7.20;99.90
53520;DHT22;39397;53.204;5.778;2023-05-03T02:14:29;7.30;99.90
53520;DHT22;39397;53.204;5.778;2023-05-03T02:17:13;7.50;99.90
53520;DHT22;39397;53.204;5.778;2023-05-03T02:19:41;5.90;99.90
53520;DHT22;39397;53.204;5.778;2023-05-03T02:22:09;7.10;99.90
53520;DHT22;39397;53.204;5.778;2023-05-03T02:24:36;7.40;99.90
53520;DHT22;39397;53.204;5.778;2023-05-03T02:27:16;8.00;99.90
53520;DHT22;39397;53.204;5.778;2023-05-03T02:29:52;7.40;99.90
53520;DHT22;39397;53.204;5.778;2023-05-03T02:32:29;7.30;99.90
53520;DHT22;39397;53.204;5.778;2023-05-03T02:35:14;7.80;99.90
53520;DHT22;39397;53.204;5.778;2023-05-03T02:37:50;7.20;99.90
53520;DHT22;39397;53.204;5.778;2023-05-03T02:40:32;8.60;99.90
53520;DHT22;39397;53.204;5.778;2023-05-03T02:42:59;7.40;99.90
53520;DHT22;39397;53.204;5.778;2023-05-03T02:45:25;7.50;99.90
53520;DHT22;39397;53.204;5.778;2023-05-03T02:47:51;7.50;99.90
53520;DHT22;39397;53.204;5.778;2023-05-03T02:50:18;7.50;99.90
53520;DHT22;39397;53.204;5.778;2023-05-03T02:52:44;7.40;99.90
53520;DHT22;39397;53.204;5.778;2023-05-03T02:55:10;7.50;99.90
53520;DHT22;39397;53.204;5.778;2023-05-03T02:57:36;7.50;99.90
53520;DHT22;39397;53.204;5.778;2023-05-03T03:00:05;7.90;99.90
53520;DHT22;39397;53.204;5.778;2023-05-03T03:02:31;7.50;99.90
53520;DHT22;39397;53.204;5.778;2023-05-03T03:04:57;7.60;99.90
53520;DHT22;39397;53.204;5.778;2023-05-03T03:07:26;7.40;99.90
53520;DHT22;39397;53.204;5.778;2023-05-03T03:09:52;8.80;99.90
53520;DHT22;39397;53.204;5.778;2023-05-03T03:12:17;7.50;99.90
53520;DHT22;39397;53.204;5.778;2023-05-03T03:14:43;7.80;99.90
53520;DHT22;39397;53.204;5.778;2023-05-03T03:17:11;7.80;99.90
53520;DHT22;39397;53.204;5.778;2023-05-03T03:19:37;9.00;99.90
53520;DHT22;39397;53.204;5.778;2023-05-03T03:22:03;7.70;99.90
53520;DHT22;39397;53.204;5.778;2023-05-03T03:24:29;7.50;99.90
53520;DHT22;39397;53.204;5.778;2023-05-03T03:26:54;7.50;99.90
53520;DHT22;39397;53.204;5.778;2023-05-03T03:29:23;7.60;99.90
53520;DHT22;39397;53.204;5.778;2023-05-03T03:31:49;9.60;99.90
53520;DHT22;39397;53.204;5.778;2023-05-03T03:34:15;9.40;99.90
53520;DHT22;39397;53.204;5.778;2023-05-03T03:36:40;7.50;99.90
53520;DHT22;39397;53.204;5.778;2023-05-03T03:39:09;7.50;99.90
53520;DHT22;39397;53.204;5.778;2023-05-03T03:41:36;7.50;99.90
53520;DHT22;39397;53.204;5.778;2023-05-03T03:44:02;7.60;99.90
53520;DHT22;39397;53.204;5.778;2023-05-03T03:46:29;7.60;99.90
53520;DHT22;39397;53.204;5.778;2023-05-03T03:49:05;8.10;99.90
53520;DHT22;39397;53.204;5.778;2023-05-03T03:51:34;7.50;99.90
53520;DHT22;39397;53.204;5.778;2023-05-03T03:54:12;7.60;99.90
53520;DHT22;39397;53.204;5.778;2023-05-03T03:56:39;8.50;99.90
53520;DHT22;39397;53.204;5.778;2023-05-03T03:59:05;7.50;99.90
53520;DHT22;39397;53.204;5.778;2023-05-03T04:01:33;7.40;99.90
53520;DHT22;39397;53.204;5.778;2023-05-03T04:04:12;7.40;99.90
53520;DHT22;39397;53.204;5.778;2023-05-03T04:06:41;7.40;99.90
53520;DHT22;39397;53.204;5.778;2023-05-03T04:09:09;8.00;99.90
53520;DHT22;39397;53.204;5.778;2023-05-03T04:11:40;7.40;99.90
53520;DHT22;39397;53.204;5.778;2023-05-03T04:14:06;7.40;99.90
53520;DHT22;39397;53.204;5.778;2023-05-03T04:16:32;7.30;99.90
53520;DHT22;39397;53.204;5.778;2023-05-03T04:19:04;7.40;99.90
53520;DHT22;39397;53.204;5.778;2023-05-03T04:21:30;7.50;99.90
53520;DHT22;39397;53.204;5.778;2023-05-03T04:23:55;7.30;99.90
53520;DHT22;39397;53.204;5.778;2023-05-03T04:26:29;7.40;99.90
53520;DHT22;39397;53.204;5.778;2023-05-03T04:28:54;4.80;99.90
53520;DHT22;39397;53.204;5.778;2023-05-03T04:31:20;7.60;99.90
53520;DHT22;39397;53.204;5.778;2023-05-03T04:33:46;8.30;99.90
53520;DHT22;39397;53.204;5.778;2023-05-03T04:36:12;8.40;99.90
53520;DHT22;39397;53.204;5.778;2023-05-03T04:38:41;7.40;99.90
53520;DHT22;39397;53.204;5.778;2023-05-03T04:41:08;7.00;99.90
53520;DHT22;39397;53.204;5.778;2023-05-03T04:43:34;9.20;99.90
53520;DHT22;39397;53.204;5.778;2023-05-03T04:46:01;7.40;99.90
53520;DHT22;39397;53.204;5.778;2023-05-03T04:48:28;7.50;99.90
53520;DHT22;39397;53.204;5.778;2023-05-03T04:50:54;7.60;99.90
53520;DHT22;39397;53.204;5.778;2023-05-03T04:53:20;7.60;99.90
53520;DHT22;39397;53.204;5.778;2023-05-03T04:55:45;8.30;99.90
53520;DHT22;39397;53.204;5.778;2023-05-03T04:58:12;7.70;99.90
53520;DHT22;39397;53.204;5.778;2023-05-03T05:00:40;7.80;99.90
53520;DHT22;39397;53.204;5.778;2023-05-03T05:03:06;7.80;99.90
53520;DHT22;39397;53.204;5.778;2023-05-03T05:05:32;7.80;99.90
53520;DHT22;39397;53.204;5.778;2023-05-03T05:07:58;7.80;99.90
53520;DHT22;39397;53.204;5.778;2023-05-03T05:10:24;7.90;99.90
53520;DHT22;39397;53.204;5.778;2023-05-03T05:12:50;8.00;99.90
53520;DHT22;39397;53.204;5.778;2023-05-03T05:15:15;8.20;99.90
53520;DHT22;39397;53.204;5.778;2023-05-03T05:17:41;8.40;99.90
53520;DHT22;39397;53.204;5.778;2023-05-03T05:20:07;9.80;99.90
53520;DHT22;39397;53.204;5.778;2023-05-03T05:22:37;8.20;99.90
53520;DHT22;39397;53.204;5.778;2023-05-03T05:25:04;8.40;99.90
53520;DHT22;39397;53.204;5.778;2023-05-03T05:27:32;8.30;99.90
53520;DHT22;39397;53.204;5.778;2023-05-03T05:29:58;8.40;99.90
53520;DHT22;39397;53.204;5.778;2023-05-03T05:32:24;8.50;99.90
53520;DHT22;39397;53.204;5.778;2023-05-03T05:34:50;8.40;99.90
53520;DHT22;39397;53.204;5.778;2023-05-03T05:37:21;8.60;99.90
53520;DHT22;39397;53.204;5.778;2023-05-03T05:39:47;8.70;99.90
53520;DHT22;39397;53.204;5.778;2023-05-03T05:42:13;8.70;99.90
53520;DHT22;39397;53.204;5.778;2023-05-03T05:44:39;8.80;99.90
53520;DHT22;39397;53.204;5.778;2023-05-03T05:47:05;8.90;99.90
53520;DHT22;39397;53.204;5.778;2023-05-03T05:49:31;8.90;99.90
53520;DHT22;39397;53.204;5.778;2023-05-03T05:51:57;9.00;99.90
53520;DHT22;39397;53.204;5.778;2023-05-03T05:54:23;9.00;99.90
53520;DHT22;39397;53.204;5.778;2023-05-03T05:56:48;9.20;99.90
53520;DHT22;39397;53.204;5.778;2023-05-03T05:59:15;9.30;99.90
53520;DHT22;39397;53.204;5.778;2023-05-03T06:01:41;9.30;99.90
53520;DHT22;39397;53.204;5.778;2023-05-03T06:04:14;8.30;99.90
53520;DHT22;39397;53.204;5.778;2023-05-03T06:06:40;9.30;99.90
53520;DHT22;39397;53.204;5.778;2023-05-03T06:09:06;9.40;99.90
53520;DHT22;39397;53.204;5.778;2023-05-03T06:11:33;9.40;99.90
53520;DHT22;39397;53.204;5.778;2023-05-03T06:13:59;9.40;99.90
53520;DHT22;39397;53.204;5.778;2023-05-03T06:16:28;9.40;99.90
53520;DHT22;39397;53.204;5.778;2023-05-03T06:18:53;10.40;99.90
53520;DHT22;39397;53.204;5.778;2023-05-03T06:21:21;9.50;99.90
53520;DHT22;39397;53.204;5.778;2023-05-03T06:23:47;9.50;99.90
53520;DHT22;39397;53.204;5.778;2023-05-03T06:26:12;9.70;99.90
53520;DHT22;39397;53.204;5.778;2023-05-03T06:28:38;9.80;99.90
53520;DHT22;39397;53.204;5.778;2023-05-03T06:31:04;9.90;99.90
53520;DHT22;39397;53.204;5.778;2023-05-03T06:33:30;10.00;99.90
53520;DHT22;39397;53.204;5.778;2023-05-03T06:35:55;10.00;99.90
53520;DHT22;39397;53.204;5.778;2023-05-03T06:38:21;10.20;99.90
53520;DHT22;39397;53.204;5.778;2023-05-03T06:40:47;10.20;99.90
53520;DHT22;39397;53.204;5.778;2023-05-03T06:43:14;10.30;99.90
53520;DHT22;39397;53.204;5.778;2023-05-03T06:45:41;10.20;99.50
53520;DHT22;39397;53.204;5.778;2023-05-03T06:48:07;10.10;99.50
53520;DHT22;39397;53.204;5.778;2023-05-03T06:50:34;10.10;99.50
53520;DHT22;39397;53.204;5.778;2023-05-03T06:53:01;10.20;99.40
53520;DHT22;39397;53.204;5.778;2023-05-03T06:55:26;10.20;99.30
53520;DHT22;39397;53.204;5.778;2023-05-03T06:57:59;10.40;99.20
53520;DHT22;39397;53.204;5.778;2023-05-03T07:00:24;10.30;98.90
53520;DHT22;39397;53.204;5.778;2023-05-03T07:02:50;10.30;99.00
53520;DHT22;39397;53.204;5.778;2023-05-03T07:05:16;10.50;99.00
53520;DHT22;39397;53.204;5.778;2023-05-03T07:07:42;10.70;98.60
53520;DHT22;39397;53.204;5.778;2023-05-03T07:10:08;11.00;98.50
53520;DHT22;39397;53.204;5.778;2023-05-03T07:12:33;10.80;98.20
53520;DHT22;39397;53.204;5.778;2023-05-03T07:14:59;10.90;98.00
53520;DHT22;39397;53.204;5.778;2023-05-03T07:17:25;10.90;97.50
53520;DHT22;39397;53.204;5.778;2023-05-03T07:19:51;10.70;97.80
53520;DHT22;39397;53.204;5.778;2023-05-03T07:22:17;10.90;97.90
53520;DHT22;39397;53.204;5.778;2023-05-03T07:24:45;10.80;97.90
53520;DHT22;39397;53.204;5.778;2023-05-03T07:27:12;11.00;97.70
53520;DHT22;39397;53.204;5.778;2023-05-03T07:29:39;11.00;97.70
53520;DHT22;39397;53.204;5.778;2023-05-03T07:32:05;10.90;97.80
53520;DHT22;39397;53.204;5.778;2023-05-03T07:34:31;11.10;97.80
53520;DHT22;39397;53.204;5.778;2023-05-03T07:36:57;11.00;97.50
53520;DHT22;39397;53.204;5.778;2023-05-03T07:39:23;11.20;97.60
53520;DHT22;39397;53.204;5.778;2023-05-03T07:41:48;11.30;97.90
53520;DHT22;39397;53.204;5.778;2023-05-03T07:44:14;11.40;98.10
53520;DHT22;39397;53.204;5.778;2023-05-03T07:46:40;11.50;98.10
53520;DHT22;39397;53.204;5.778;2023-05-03T07:49:05;11.60;97.90
53520;DHT22;39397;53.204;5.778;2023-05-03T07:51:35;12.10;97.70
53520;DHT22;39397;53.204;5.778;2023-05-03T07:54:01;11.60;97.70
53520;DHT22;39397;53.204;5.778;2023-05-03T07:56:27;11.50;97.70
53520;DHT22;39397;53.204;5.778;2023-05-03T07:58:53;11.50;97.50
53520;DHT22;39397;53.204;5.778;2023-05-03T08:01:19;11.30;97.70
53520;DHT22;39397;53.204;5.778;2023-05-03T08:03:46;11.40;97.90
53520;DHT22;39397;53.204;5.778;2023-05-03T08:06:18;10.90;97.60
53520;DHT22;39397;53.204;5.778;2023-05-03T08:08:44;11.40;97.00
53520;DHT22;39397;53.204;5.778;2023-05-03T08:11:10;11.30;97.80
53520;DHT22;39397;53.204;5.778;2023-05-03T08:13:36;11.40;97.90
53520;DHT22;39397;53.204;5.778;2023-05-03T08:16:03;11.20;97.90
53520;DHT22;39397;53.204;5.778;2023-05-03T08:18:29;11.20;98.00
53520;DHT22;39397;53.204;5.778;2023-05-03T08:20:55;11.00;98.10
53520;DHT22;39397;53.204;5.778;2023-05-03T08:23:20;11.00;98.30
53520;DHT22;39397;53.204;5.778;2023-05-03T08:25:47;11.00;98.50
53520;DHT22;39397;53.204;5.778;2023-05-03T08:28:13;11.10;98.40
53520;DHT22;39397;53.204;5.778;2023-05-03T08:30:39;11.00;98.50
53520;DHT22;39397;53.204;5.778;2023-05-03T08:33:06;11.00;98.70
53520;DHT22;39397;53.204;5.778;2023-05-03T08:35:34;11.10;98.30
53520;DHT22;39397;53.204;5.778;2023-05-03T08:38:00;11.10;98.00
53520;DHT22;39397;53.204;5.778;2023-05-03T08:40:27;11.10;98.10
53520;DHT22;39397;53.204;5.778;2023-05-03T08:42:55;11.10;97.90
53520;DHT22;39397;53.204;5.778;2023-05-03T08:45:22;11.10;97.70
53520;DHT22;39397;53.204;5.778;2023-05-03T08:47:53;11.20;97.70
53520;DHT22;39397;53.204;5.778;2023-05-03T08:50:20;11.20;97.60
53520;DHT22;39397;53.204;5.778;2023-05-03T08:52:46;11.30;97.50
53520;DHT22;39397;53.204;5.778;2023-05-03T08:55:12;11.40;97.30
53520;DHT22;39397;53.204;5.778;2023-05-03T08:57:38;11.50;97.20
53520;DHT22;39397;53.204;5.778;2023-05-03T09:00:06;11.50;97.00
53520;DHT22;39397;53.204;5.778;2023-05-03T09:02:35;11.70;96.50
53520;DHT22;39397;53.204;5.778;2023-05-03T09:05:29;11.80;96.60
53520;DHT22;39397;53.204;5.778;2023-05-03T09:10:28;11.80;96.60
53520;DHT22;39397;53.204;5.778;2023-05-03T09:13:01;12.00;96.50
53520;DHT22;39397;53.204;5.778;2023-05-03T09:15:28;11.80;96.60
53520;DHT22;39397;53.204;5.778;2023-05-03T09:20:38;11.90;96.70
53520;DHT22;39397;53.204;5.778;2023-05-03T09:23:09;12.10;96.70
53520;DHT22;39397;53.204;5.778;2023-05-03T09:25:44;12.10;96.50
53520;DHT22;39397;53.204;5.778;2023-05-03T09:28:15;12.20;95.80
53520;DHT22;39397;53.204;5.778;2023-05-03T09:30:42;12.40;96.40
53520;DHT22;39397;53.204;5.778;2023-05-03T09:33:09;12.40;96.20
53520;DHT22;39397;53.204;5.778;2023-05-03T09:35:37;12.40;96.20
53520;DHT22;39397;53.204;5.778;2023-05-03T09:38:03;12.50;96.00
53520;DHT22;39397;53.204;5.778;2023-05-03T09:40:29;12.60;96.10
53520;DHT22;39397;53.204;5.778;2023-05-03T09:43:08;12.60;96.00
53520;DHT22;39397;53.204;5.778;2023-05-03T09:45:36;12.60;95.00
53520;DHT22;39397;53.204;5.778;2023-05-03T09:48:04;12.60;95.80
53520;DHT22;39397;53.204;5.778;2023-05-03T09:50:34;12.60;95.50
53520;DHT22;39397;53.204;5.778;2023-05-03T09:53:02;12.60;95.80
53520;DHT22;39397;53.204;5.778;2023-05-03T09:55:32;12.50;95.70
53520;DHT22;39397;53.204;5.778;2023-05-03T09:57:59;12.50;95.80
53520;DHT22;39397;53.204;5.778;2023-05-03T10:00:26;12.60;95.50
53520;DHT22;39397;53.204;5.778;2023-05-03T10:02:56;12.60;95.70
53520;DHT22;39397;53.204;5.778;2023-05-03T10:05:25;12.70;95.70
53520;DHT22;39397;53.204;5.778;2023-05-03T10:07:55;12.80;95.40
53520;DHT22;39397;53.204;5.778;2023-05-03T10:10:23;12.90;95.10
53520;DHT22;39397;53.204;5.778;2023-05-03T10:12:49;13.00;95.00
53520;DHT22;39397;53.204;5.778;2023-05-03T10:15:20;12.90;95.00
53520;DHT22;39397;53.204;5.778;2023-05-03T10:17:49;13.10;94.80
53520;DHT22;39397;53.204;5.778;2023-05-03T10:20:39;13.10;94.70
53520;DHT22;39397;53.204;5.778;2023-05-03T10:23:10;13.20;94.00
53520;DHT22;39397;53.204;5.778;2023-05-03T10:25:38;13.20;94.50
53520;DHT22;39397;53.204;5.778;2023-05-03T10:28:08;13.10;94.50
53520;DHT22;39397;53.204;5.778;2023-05-03T10:30:38;13.30;94.40
53520;DHT22;39397;53.204;5.778;2023-05-03T10:35:39;13.30;94.50
53520;DHT22;39397;53.204;5.778;2023-05-03T10:38:22;13.50;94.40
53520;DHT22;39397;53.204;5.778;2023-05-03T10:40:48;13.60;94.70
53520;DHT22;39397;53.204;5.778;2023-05-03T10:46:07;14.00;93.50
53520;DHT22;39397;53.204;5.778;2023-05-03T10:48:34;13.80;93.30
53520;DHT22;39397;53.204;5.778;2023-05-03T10:51:36;13.70;93.30
53520;DHT22;39397;53.204;5.778;2023-05-03T10:54:03;13.70;92.70
53520;DHT22;39397;53.204;5.778;2023-05-03T10:56:29;13.60;93.10
53520;DHT22;39397;53.204;5.778;2023-05-03T10:58:55;13.60;92.90
53520;DHT22;39397;53.204;5.778;2023-05-03T11:01:23;13.40;93.30
53520;DHT22;39397;53.204;5.778;2023-05-03T11:04:09;13.40;93.10
53520;DHT22;39397;53.204;5.778;2023-05-03T11:06:38;13.50;92.30
53520;DHT22;39397;53.204;5.778;2023-05-03T11:09:07;13.60;92.80
53520;DHT22;39397;53.204;5.778;2023-05-03T11:11:34;13.70;92.70
53520;DHT22;39397;53.204;5.778;2023-05-03T11:14:04;13.80;92.80
53520;DHT22;39397;53.204;5.778;2023-05-03T11:16:30;14.00;93.10
53520;DHT22;39397;53.204;5.778;2023-05-03T11:18:56;14.20;93.10
53520;DHT22;39397;53.204;5.778;2023-05-03T11:21:22;14.40;93.00
53520;DHT22;39397;53.204;5.778;2023-05-03T11:23:48;14.60;92.50
53520;DHT22;39397;53.204;5.778;2023-05-03T11:26:14;14.70;91.20
53520;DHT22;39397;53.204;5.778;2023-05-03T11:28:41;14.60;91.50
53520;DHT22;39397;53.204;5.778;2023-05-03T11:31:08;14.90;92.10
53520;DHT22;39397;53.204;5.778;2023-05-03T11:33:36;14.70;91.60
53520;DHT22;39397;53.204;5.778;2023-05-03T11:36:03;14.80;91.40
53520;DHT22;39397;53.204;5.778;2023-05-03T11:38:33;14.80;91.20
53520;DHT22;39397;53.204;5.778;2023-05-03T11:40:59;14.80;91.40
53520;DHT22;39397;53.204;5.778;2023-05-03T11:43:26;14.80;90.60
53520;DHT22;39397;53.204;5.778;2023-05-03T11:45:56;14.60;90.70
53520;DHT22;39397;53.204;5.778;2023-05-03T11:48:22;14.50;91.10
53520;DHT22;39397;53.204;5.778;2023-05-03T11:50:54;14.60;90.80
53520;DHT22;39397;53.204;5.778;2023-05-03T11:53:22;14.50;90.80
53520;DHT22;39397;53.204;5.778;2023-05-03T11:55:50;14.40;90.80
53520;DHT22;39397;53.204;5.778;2023-05-03T11:58:24;14.60;91.00
53520;DHT22;39397;53.204;5.778;2023-05-03T12:00:52;14.50;91.00
53520;DHT22;39397;53.204;5.778;2023-05-03T12:03:29;14.40;90.80
53520;DHT22;39397;53.204;5.778;2023-05-03T12:05:58;14.50;91.10
53520;DHT22;39397;53.204;5.778;2023-05-03T12:08:31;14.40;91.00
53520;DHT22;39397;53.204;5.778;2023-05-03T12:10:59;14.50;90.20
53520;DHT22;39397;53.204;5.778;2023-05-03T12:13:31;14.60;90.70
53520;DHT22;39397;53.204;5.778;2023-05-03T12:15:58;14.70;90.40
53520;DHT22;39397;53.204;5.778;2023-05-03T12:18:53;14.80;90.00
53520;DHT22;39397;53.204;5.778;2023-05-03T12:21:22;14.70;88.90
53520;DHT22;39397;53.204;5.778;2023-05-03T12:23:49;14.60;90.30
53520;DHT22;39397;53.204;5.778;2023-05-03T12:26:16;14.60;90.30
53520;DHT22;39397;53.204;5.778;2023-05-03T12:28:44;14.60;90.10
53520;DHT22;39397;53.204;5.778;2023-05-03T12:31:10;14.70;90.00
53520;DHT22;39397;53.204;5.778;2023-05-03T12:33:37;14.70;90.10
53520;DHT22;39397;53.204;5.778;2023-05-03T12:36:03;15.00;90.30
53520;DHT22;39397;53.204;5.778;2023-05-03T12:38:32;15.10;89.60
53520;DHT22;39397;53.204;5.778;2023-05-03T12:40:59;15.00;89.40
53520;DHT22;39397;53.204;5.778;2023-05-03T12:43:25;15.00;89.90
53520;DHT22;39397;53.204;5.778;2023-05-03T12:45:51;15.00;90.10
53520;DHT22;39397;53.204;5.778;2023-05-03T12:48:16;14.70;89.90
53520;DHT22;39397;53.204;5.778;2023-05-03T12:50:42;14.70;89.50
53520;DHT22;39397;53.204;5.778;2023-05-03T12:53:08;14.80;89.30
53520;DHT22;39397;53.204;5.778;2023-05-03T12:55:34;14.60;89.50
53520;DHT22;39397;53.204;5.778;2023-05-03T12:58:00;14.50;89.70
53520;DHT22;39397;53.204;5.778;2023-05-03T13:00:26;14.70;89.50
53520;DHT22;39397;53.204;5.778;2023-05-03T13:02:52;14.50;89.40
53520;DHT22;39397;53.204;5.778;2023-05-03T13:05:18;14.30;89.70
53520;DHT22;39397;53.204;5.778;2023-05-03T13:07:44;14.20;90.10
53520;DHT22;39397;53.204;5.778;2023-05-03T13:10:10;14.20;90.30
53520;DHT22;39397;53.204;5.778;2023-05-03T13:12:36;14.40;90.60
53520;DHT22;39397;53.204;5.778;2023-05-03T13:15:02;14.50;90.30
53520;DHT22;39397;53.204;5.778;2023-05-03T13:17:29;14.80;90.00
53520;DHT22;39397;53.204;5.778;2023-05-03T13:19:55;14.90;89.40
53520;DHT22;39397;53.204;5.778;2023-05-03T13:22:21;14.70;88.60
53520;DHT22;39397;53.204;5.778;2023-05-03T13:24:47;14.40;89.30
53520;DHT22;39397;53.204;5.778;2023-05-03T13:27:14;14.20;90.00
53520;DHT22;39397;53.204;5.778;2023-05-03T13:29:40;13.90;90.20
53520;DHT22;39397;53.204;5.778;2023-05-03T13:32:07;13.60;90.30
53520;DHT22;39397;53.204;5.778;2023-05-03T13:34:33;13.90;90.60
53520;DHT22;39397;53.204;5.778;2023-05-03T13:37:00;14.00;90.50
53520;DHT22;39397;53.204;5.778;2023-05-03T13:39:25;13.80;90.10
53520;DHT22;39397;53.204;5.778;2023-05-03T13:41:51;14.10;90.30
53520;DHT22;39397;53.204;5.778;2023-05-03T13:44:17;14.00;90.40
53520;DHT22;39397;53.204;5.778;2023-05-03T13:46:43;14.00;90.50
53520;DHT22;39397;53.204;5.778;2023-05-03T13:49:09;13.80;90.50
53520;DHT22;39397;53.204;5.778;2023-05-03T13:51:36;13.80;90.60
53520;DHT22;39397;53.204;5.778;2023-05-03T13:54:03;13.80;90.50
53520;DHT22;39397;53.204;5.778;2023-05-03T13:56:30;13.90;90.50
53520;DHT22;39397;53.204;5.778;2023-05-03T13:58:56;13.70;90.50
53520;DHT22;39397;53.204;5.778;2023-05-03T14:01:23;13.80;90.50
53520;DHT22;39397;53.204;5.778;2023-05-03T14:03:50;14.10;90.70
53520;DHT22;39397;53.204;5.778;2023-05-03T14:06:16;14.10;90.60
53520;DHT22;39397;53.204;5.778;2023-05-03T14:08:42;14.10;90.60
53520;DHT22;39397;53.204;5.778;2023-05-03T14:11:15;14.10;90.10
53520;DHT22;39397;53.204;5.778;2023-05-03T14:13:42;14.00;90.30
53520;DHT22;39397;53.204;5.778;2023-05-03T14:16:28;14.10;90.40
53520;DHT22;39397;53.204;5.778;2023-05-03T14:18:54;14.30;91.40
53520;DHT22;39397;53.204;5.778;2023-05-03T14:21:20;14.40;90.60
53520;DHT22;39397;53.204;5.778;2023-05-03T14:23:47;15.30;90.90
53520;DHT22;39397;53.204;5.778;2023-05-03T14:26:14;14.60;90.80
53520;DHT22;39397;53.204;5.778;2023-05-03T14:28:41;14.70;90.60
53520;DHT22;39397;53.204;5.778;2023-05-03T14:31:08;14.80;90.30
53520;DHT22;39397;53.204;5.778;2023-05-03T14:33:34;15.10;90.30
53520;DHT22;39397;53.204;5.778;2023-05-03T14:36:00;15.00;90.00
53520;DHT22;39397;53.204;5.778;2023-05-03T14:38:26;15.00;89.30
53520;DHT22;39397;53.204;5.778;2023-05-03T14:40:52;14.90;89.80
53520;DHT22;39397;53.204;5.778;2023-05-03T14:43:19;15.00;90.30
53520;DHT22;39397;53.204;5.778;2023-05-03T14:45:45;14.90;89.40
53520;DHT22;39397;53.204;5.778;2023-05-03T14:48:13;14.90;89.50
53520;DHT22;39397;53.204;5.778;2023-05-03T14:50:39;15.10;89.20
53520;DHT22;39397;53.204;5.778;2023-05-03T14:53:04;15.20;89.20
53520;DHT22;39397;53.204;5.778;2023-05-03T14:55:30;15.30;88.90
53520;DHT22;39397;53.204;5.778;2023-05-03T14:57:56;15.30;89.50
53520;DHT22;39397;53.204;5.778;2023-05-03T15:00:22;15.50;88.30
53520;DHT22;39397;53.204;5.778;2023-05-03T15:02:53;15.40;88.50
53520;DHT22;39397;53.204;5.778;2023-05-03T15:05:23;15.70;86.70
53520;DHT22;39397;53.204;5.778;2023-05-03T15:07:55;15.90;88.30
53520;DHT22;39397;53.204;5.778;2023-05-03T15:10:21;15.80;88.90
53520;DHT22;39397;53.204;5.778;2023-05-03T15:12:47;15.90;87.80
53520;DHT22;39397;53.204;5.778;2023-05-03T15:15:13;15.90;87.60
53520;DHT22;39397;53.204;5.778;2023-05-03T15:17:40;16.10;87.00
53520;DHT22;39397;53.204;5.778;2023-05-03T15:20:06;16.20;86.10
53520;DHT22;39397;53.204;5.778;2023-05-03T15:22:35;16.20;85.60
53520;DHT22;39397;53.204;5.778;2023-05-03T15:25:00;16.30;86.30
53520;DHT22;39397;53.204;5.778;2023-05-03T15:27:26;16.50;85.80
53520;DHT22;39397;53.204;5.778;2023-05-03T15:29:52;16.50;85.80
53520;DHT22;39397;53.204;5.778;2023-05-03T15:32:18;16.50;85.60
53520;DHT22;39397;53.204;5.778;2023-05-03T15:34:44;16.80;85.30
53520;DHT22;39397;53.204;5.778;2023-05-03T15:37:09;17.00;86.40
53520;DHT22;39397;53.204;5.778;2023-05-03T15:39:40;17.20;84.80
53520;DHT22;39397;53.204;5.778;2023-05-03T15:42:06;17.20;84.20
53520;DHT22;39397;53.204;5.778;2023-05-03T15:44:31;17.30;84.20
53520;DHT22;39397;53.204;5.778;2023-05-03T15:46:58;17.40;84.70
53520;DHT22;39397;53.204;5.778;2023-05-03T15:49:23;17.60;83.80
53520;DHT22;39397;53.204;5.778;2023-05-03T15:51:49;17.80;83.20
53520;DHT22;39397;53.204;5.778;2023-05-03T15:54:15;17.90;81.20
53520;DHT22;39397;53.204;5.778;2023-05-03T15:56:42;18.20;81.30
53520;DHT22;39397;53.204;5.778;2023-05-03T15:59:08;17.80;80.80
53520;DHT22;39397;53.204;5.778;2023-05-03T16:01:34;17.90;81.00